Time;durP1;ratioP1;P1;durP2;ratioP2;P2;SDS_P1;SDS_P2;PMS_P1;PMS_P2;Temp;Humidity;BMP_temperature;BMP_pressure;BME280_temperature;BME280_humidity;BME280_pressure;Samples;Min_cycle;Max_cycle;Signal;HPM_P1;HPM_P2
2023/10/13 00:00:48;;;;;;;1.50;0.90;;;17.80;98.20;;;;;;5033950;28;20490;-80
2023/10/13 00:03:18;;;;;;;1.50;1.00;;;17.80;98.20;;;;;;5029475;28;20482;-80
2023/10/13 00:05:45;;;;;;;1.50;1.00;;;17.80;98.20;;;;;;5047414;28;20945;-80
2023/10/13 00:08:14;;;;;;;1.50;0.90;;;17.80;98.20;;;;;;5024470;28;20475;-80
2023/10/13 00:10:43;;;;;;;1.50;0.90;;;17.80;98.20;;;;;;5047695;28;20469;-80
2023/10/13 00:13:12;;;;;;;1.50;0.90;;;17.70;98.20;;;;;;5020540;28;20513;-80
2023/10/13 00:15:45;;;;;;;1.50;1.00;;;17.70;98.20;;;;;;5045760;28;20469;-81
2023/10/13 00:18:13;;;;;;;1.50;0.90;;;17.70;98.20;;;;;;5023185;28;20482;-81
2023/10/13 00:20:48;;;;;;;1.50;0.90;;;17.70;98.20;;;;;;5050354;28;21006;-80
2023/10/13 00:23:15;;;;;;;1.50;1.00;;;17.70;98.20;;;;;;5020588;28;20505;-79
2023/10/13 00:25:49;;;;;;;1.50;1.10;;;17.70;98.20;;;;;;5047718;28;20460;-80
2023/10/13 00:28:23;;;;;;;1.50;0.90;;;17.70;98.20;;;;;;5018817;28;20482;-80
2023/10/13 00:30:59;;;;;;;1.50;0.90;;;17.70;98.20;;;;;;5037412;28;20456;-81
2023/10/13 00:33:26;;;;;;;1.50;1.00;;;17.70;98.20;;;;;;5056999;28;20470;-80
2023/10/13 00:35:57;;;;;;;1.57;1.10;;;17.70;98.20;;;;;;5036552;28;20461;-80
2023/10/13 00:38:25;;;;;;;1.50;1.00;;;17.70;98.20;;;;;;5028239;28;20557;-81
2023/10/13 00:40:53;;;;;;;1.50;0.90;;;17.70;98.20;;;;;;5039983;28;20514;-80
2023/10/13 00:43:34;;;;;;;1.50;1.00;;;17.70;98.20;;;;;;5031614;28;20462;-80
2023/10/13 00:46:07;;;;;;;1.50;0.93;;;17.70;98.20;;;;;;5034455;28;20993;-80
2023/10/13 00:48:42;;;;;;;1.50;0.90;;;17.70;98.20;;;;;;5048362;28;20862;-81
2023/10/13 00:51:17;;;;;;;1.50;1.00;;;17.70;98.20;;;;;;5038693;28;20890;-80
2023/10/13 00:53:47;;;;;;;1.50;0.90;;;17.70;98.20;;;;;;5047383;28;20465;-80
2023/10/13 00:56:23;;;;;;;1.50;0.90;;;17.80;98.20;;;;;;5035410;28;20549;-80
2023/10/13 00:58:51;;;;;;;1.50;1.00;;;17.80;98.20;;;;;;5024573;28;20510;-80
2023/10/13 01:01:22;;;;;;;1.50;0.90;;;17.80;98.20;;;;;;5023751;28;20751;-80
2023/10/13 01:03:49;;;;;;;1.50;0.90;;;17.80;98.20;;;;;;5041133;28;20549;-80
2023/10/13 01:06:17;;;;;;;1.50;0.90;;;17.80;98.20;;;;;;5033370;28;21125;-80
2023/10/13 01:08:50;;;;;;;1.50;0.90;;;17.80;98.20;;;;;;5045406;28;20486;-79
2023/10/13 01:11:19;;;;;;;1.50;0.90;;;17.80;98.20;;;;;;5030891;28;20485;-80
2023/10/13 01:13:47;;;;;;;1.50;1.00;;;17.80;98.20;;;;;;5049926;28;20466;-79
2023/10/13 01:16:14;;;;;;;1.50;1.00;;;17.80;98.20;;;;;;5037229;28;20513;-79
2023/10/13 01:18:47;;;;;;;1.50;0.90;;;17.80;98.20;;;;;;5048136;28;20563;-79
2023/10/13 01:21:19;;;;;;;1.50;0.90;;;17.80;98.20;;;;;;5042270;28;21022;-79
2023/10/13 01:23:47;;;;;;;1.50;0.90;;;17.80;98.20;;;;;;5048289;28;20473;-79
2023/10/13 01:26:21;;;;;;;1.50;0.90;;;17.80;98.20;;;;;;5038036;28;20474;-79
2023/10/13 01:28:50;;;;;;;1.50;1.00;;;17.80;98.20;;;;;;5042221;28;20482;-79
2023/10/13 01:31:25;;;;;;;1.50;0.90;;;17.80;98.20;;;;;;5037704;28;20470;-79
2023/10/13 01:33:54;;;;;;;1.50;1.00;;;17.80;98.20;;;;;;5047416;28;20462;-78
2023/10/13 01:36:21;;;;;;;1.50;1.00;;;17.80;98.20;;;;;;5031776;28;20467;-80
2023/10/13 01:38:49;;;;;;;1.50;0.90;;;17.80;98.20;;;;;;5036340;28;21149;-80
2023/10/13 01:41:15;;;;;;;1.50;0.90;;;17.80;98.20;;;;;;5035361;28;20479;-80
2023/10/13 01:43:42;;;;;;;1.50;0.90;;;17.80;98.20;;;;;;5032718;28;20465;-78
2023/10/13 01:46:09;;;;;;;1.50;0.90;;;17.80;98.20;;;;;;5040750;28;20470;-80
2023/10/13 01:48:38;;;;;;;1.50;0.90;;;17.80;98.20;;;;;;5057887;28;20496;-81
2023/10/13 01:51:08;;;;;;;1.50;0.90;;;17.80;98.20;;;;;;5040009;28;20464;-80
2023/10/13 01:53:36;;;;;;;1.50;0.90;;;17.70;98.20;;;;;;5056992;28;20523;-80
2023/10/13 01:56:09;;;;;;;1.50;1.00;;;17.70;98.20;;;;;;5034803;28;20501;-79
2023/10/13 01:58:37;;;;;;;1.50;0.90;;;17.70;98.20;;;;;;5027138;28;20876;-79
2023/10/13 02:01:07;;;;;;;1.50;0.90;;;17.70;98.20;;;;;;5033290;28;20516;-80
2023/10/13 02:03:33;;;;;;;1.50;0.90;;;17.70;98.20;;;;;;5032590;28;20466;-81
2023/10/13 02:06:04;;;;;;;1.50;0.90;;;17.70;98.20;;;;;;5042310;28;20498;-80
2023/10/13 02:08:30;;;;;;;1.50;0.90;;;17.70;98.20;;;;;;5046879;28;20581;-80
2023/10/13 02:10:58;;;;;;;1.50;0.90;;;17.70;98.20;;;;;;5036923;28;20471;-80
2023/10/13 02:13:26;;;;;;;1.50;0.90;;;17.70;98.20;;;;;;5042273;28;20463;-81
2023/10/13 02:15:57;;;;;;;1.50;0.90;;;17.80;98.20;;;;;;5032052;28;20553;-81
2023/10/13 02:18:26;;;;;;;1.50;0.90;;;17.80;98.20;;;;;;5040830;28;20513;-80
2023/10/13 02:20:55;;;;;;;1.50;0.90;;;17.80;98.20;;;;;;5032157;28;20544;-80
2023/10/13 02:23:22;;;;;;;1.50;1.00;;;17.80;98.20;;;;;;5035809;28;20513;-80
2023/10/13 02:25:53;;;;;;;1.50;0.90;;;17.80;98.20;;;;;;5045751;28;20518;-79
2023/10/13 02:28:21;;;;;;;1.50;0.90;;;17.80;98.20;;;;;;5031835;28;20509;-79
2023/10/13 02:30:50;;;;;;;1.50;0.90;;;17.80;98.20;;;;;;5032992;28;20554;-80
2023/10/13 02:33:21;;;;;;;1.53;1.00;;;17.80;98.20;;;;;;5034385;28;20550;-79
2023/10/13 02:35:53;;;;;;;1.50;0.90;;;17.80;98.20;;;;;;5030193;28;20471;-79
2023/10/13 02:38:27;;;;;;;1.50;0.90;;;17.80;98.20;;;;;;5043019;28;20561;-81
2023/10/13 02:40:55;;;;;;;1.80;1.57;;;17.80;98.20;;;;;;5033044;28;20482;-81
2023/10/13 02:43:22;;;;;;;1.50;1.00;;;17.80;98.20;;;;;;5047483;28;20524;-81
2023/10/13 02:45:58;;;;;;;1.50;0.90;;;17.80;98.20;;;;;;5038521;28;20524;-80
2023/10/13 02:48:26;;;;;;;1.50;1.00;;;17.80;98.20;;;;;;5049029;28;20489;-81
2023/10/13 02:51:01;;;;;;;1.50;0.90;;;17.80;98.20;;;;;;5032544;28;20462;-80
2023/10/13 02:53:28;;;;;;;1.50;0.90;;;17.80;98.20;;;;;;5041216;28;20579;-81
2023/10/13 02:55:58;;;;;;;1.50;1.10;;;17.70;98.20;;;;;;5031839;28;20466;-79
2023/10/13 02:58:37;;;;;;;1.50;0.90;;;17.70;98.20;;;;;;5041687;28;20849;-78
2023/10/13 03:01:16;;;;;;;1.50;0.90;;;17.80;98.20;;;;;;5034876;28;20561;-80
2023/10/13 03:03:49;;;;;;;1.50;0.90;;;17.70;98.20;;;;;;5032608;28;20457;-81
2023/10/13 03:06:18;;;;;;;1.50;0.90;;;17.80;98.20;;;;;;5035818;28;20474;-80
2023/10/13 03:08:44;;;;;;;1.50;0.90;;;17.70;98.20;;;;;;5050353;28;20486;-81
2023/10/13 03:11:13;;;;;;;1.50;0.90;;;17.70;98.20;;;;;;5038883;28;20470;-80
2023/10/13 03:13:44;;;;;;;1.50;0.90;;;17.70;98.20;;;;;;5042721;28;20263;-80
2023/10/13 03:16:16;;;;;;;1.50;0.90;;;17.70;98.20;;;;;;5030636;28;20467;-80
2023/10/13 03:18:53;;;;;;;1.53;1.07;;;17.70;98.20;;;;;;5036494;28;21126;-80
2023/10/13 03:21:29;;;;;;;1.50;1.00;;;17.60;98.20;;;;;;5031930;28;20988;-81
2023/10/13 03:23:58;;;;;;;1.50;0.90;;;17.60;98.20;;;;;;5033775;28;20892;-78
2023/10/13 03:26:25;;;;;;;1.50;0.90;;;17.60;98.20;;;;;;5037126;28;20498;-81
2023/10/13 03:28:52;;;;;;;1.50;1.00;;;17.60;98.20;;;;;;5051592;28;20478;-79
2023/10/13 03:31:28;;;;;;;1.50;1.00;;;17.60;98.20;;;;;;5036666;28;20481;-81
2023/10/13 03:33:59;;;;;;;1.50;0.90;;;17.60;98.20;;;;;;5051221;28;20515;-80
2023/10/13 03:39:07;;;;;;;1.50;1.00;;;17.70;98.20;;;;;;5029821;28;20576;-80
2023/10/13 03:41:37;;;;;;;3.40;2.80;;;17.70;98.20;;;;;;5031934;28;20543;-80
2023/10/13 03:44:12;;;;;;;1.50;1.00;;;17.70;98.20;;;;;;5046514;28;20452;-81
2023/10/13 03:46:42;;;;;;;1.50;1.00;;;17.70;98.20;;;;;;5033319;28;20543;-81
2023/10/13 03:49:12;;;;;;;1.50;0.90;;;17.70;98.20;;;;;;5049135;28;20478;-80
2023/10/13 03:51:40;;;;;;;1.50;0.90;;;17.70;98.20;;;;;;5025295;28;20521;-80
2023/10/13 03:54:08;;;;;;;1.50;0.90;;;17.70;98.20;;;;;;5039553;28;20469;-80
2023/10/13 03:56:45;;;;;;;1.50;0.90;;;17.70;98.20;;;;;;5030182;28;20483;-81
2023/10/13 03:59:18;;;;;;;1.50;0.90;;;17.70;98.20;;;;;;5036149;28;20464;-80
2023/10/13 04:01:53;;;;;;;1.50;0.90;;;17.70;98.20;;;;;;5041341;28;20482;-82
2023/10/13 04:04:34;;;;;;;1.50;0.90;;;17.70;98.20;;;;;;5042484;28;20537;-80
2023/10/13 04:07:26;;;;;;;1.50;0.93;;;17.80;98.20;;;;;;5028377;28;20930;-81
2023/10/13 04:15:36;;;;;;;1.50;1.00;;;17.80;98.20;;;;;;4990426;28;20988;-81
2023/10/13 04:18:14;;;;;;;1.50;0.90;;;17.80;98.20;;;;;;5023912;28;20486;-80
2023/10/13 04:20:46;;;;;;;1.50;0.90;;;17.80;98.20;;;;;;5056271;28;20464;-80
2023/10/13 04:23:18;;;;;;;14.43;5.80;;;17.80;98.20;;;;;;5036772;28;20479;-80
2023/10/13 04:26:08;;;;;;;1.50;0.90;;;17.80;98.20;;;;;;5044927;28;20481;-79
2023/10/13 04:28:34;;;;;;;1.53;0.97;;;17.80;98.20;;;;;;5021867;28;20479;-79
2023/10/13 04:31:11;;;;;;;1.50;0.90;;;17.80;98.20;;;;;;5040262;28;20463;-80
2023/10/13 04:33:51;;;;;;;1.50;0.90;;;17.80;98.20;;;;;;5045289;28;20481;-82
2023/10/13 04:36:22;;;;;;;1.50;0.90;;;17.80;98.20;;;;;;5039993;28;20563;-81
2023/10/13 04:38:56;;;;;;;1.90;1.30;;;17.80;98.20;;;;;;5042689;28;20485;-81
2023/10/13 04:41:31;;;;;;;1.53;1.00;;;17.90;98.20;;;;;;5045752;28;20565;-82
2023/10/13 04:44:04;;;;;;;1.50;0.90;;;17.90;98.20;;;;;;5044597;28;20470;-82
2023/10/13 04:46:54;;;;;;;1.50;0.90;;;17.90;98.20;;;;;;5026673;28;20973;-81
2023/10/13 04:49:28;;;;;;;1.50;0.90;;;17.90;98.20;;;;;;5045307;28;20557;-81
2023/10/13 04:51:58;;;;;;;1.50;0.90;;;18.00;98.20;;;;;;5035136;28;20499;-81
2023/10/13 04:54:44;;;;;;;1.50;0.90;;;18.00;98.20;;;;;;5048651;28;20462;-81
2023/10/13 04:57:32;;;;;;;1.50;0.90;;;18.00;98.20;;;;;;5035577;28;20478;-79
2023/10/13 05:03:17;;;;;;;1.50;0.90;;;18.00;98.20;;;;;;5023660;28;20487;-81
2023/10/13 05:05:45;;;;;;;1.50;1.00;;;18.10;98.20;;;;;;5044827;28;20520;-81
2023/10/13 05:47:01;;;;;;;1.50;0.90;;;18.10;98.20;;;;;;5034425;28;20477;-79
2023/10/13 05:49:49;;;;;;;1.50;0.90;;;18.10;98.20;;;;;;5046221;28;21039;-79
2023/10/13 06:30:59;;;;;;;1.50;0.90;;;18.20;98.20;;;;;;5031015;28;20486;-81
2023/10/13 06:33:28;;;;;;;1.50;0.90;;;18.30;98.20;;;;;;5047936;28;20461;-81
2023/10/13 06:35:57;;;;;;;1.50;0.90;;;18.30;98.20;;;;;;5039671;28;20600;-80
2023/10/13 06:38:27;;;;;;;1.50;0.90;;;18.30;98.20;;;;;;5047022;28;20486;-81
2023/10/13 06:40:53;;;;;;;1.53;1.00;;;18.40;98.20;;;;;;5038583;28;20513;-81
2023/10/13 06:43:23;;;;;;;1.50;0.90;;;18.40;98.20;;;;;;5047326;28;20492;-81
2023/10/13 06:46:00;;;;;;;1.50;0.90;;;18.40;98.20;;;;;;5037037;28;20623;-81
2023/10/13 06:48:27;;;;;;;1.50;0.90;;;18.40;98.20;;;;;;5038352;28;20501;-81
2023/10/13 06:50:55;;;;;;;1.60;1.10;;;18.40;98.20;;;;;;5033903;28;20473;-83
2023/10/13 06:53:22;;;;;;;2.53;2.13;;;18.40;98.20;;;;;;5042898;28;20486;-82
2023/10/13 06:55:52;;;;;;;1.50;0.90;;;18.40;98.20;;;;;;5034953;28;20551;-81
2023/10/13 06:58:23;;;;;;;1.50;0.90;;;18.50;98.20;;;;;;5044571;28;21028;-79
2023/10/13 07:00:55;;;;;;;1.50;0.90;;;18.50;98.20;;;;;;5040141;28;20528;-80
2023/10/13 07:03:24;;;;;;;1.50;0.90;;;18.50;98.20;;;;;;5025167;28;21000;-80
2023/10/13 07:05:52;;;;;;;1.50;1.00;;;18.60;98.20;;;;;;5037169;28;20463;-80
2023/10/13 07:08:21;;;;;;;1.53;1.00;;;18.60;98.20;;;;;;5046702;28;20489;-79
2023/10/13 07:11:02;;;;;;;1.60;1.10;;;18.70;98.20;;;;;;5039246;28;20889;-80
2023/10/13 07:13:29;;;;;;;1.50;0.90;;;18.70;98.20;;;;;;5040025;28;20470;-80
2023/10/13 07:16:05;;;;;;;1.53;0.90;;;18.70;98.20;;;;;;5034852;28;20474;-81
2023/10/13 07:18:37;;;;;;;1.50;0.90;;;18.70;98.20;;;;;;5040592;28;20532;-80
2023/10/13 07:21:09;;;;;;;1.50;0.90;;;18.80;98.20;;;;;;5032879;28;20462;-80
2023/10/13 07:23:36;;;;;;;1.50;0.90;;;18.80;98.20;;;;;;5043865;28;20455;-80
2023/10/13 07:26:08;;;;;;;1.50;1.00;;;18.90;98.20;;;;;;5032188;28;20462;-80
2023/10/13 07:28:36;;;;;;;1.50;0.90;;;18.90;98.20;;;;;;5040665;28;20474;-80
2023/10/13 07:31:14;;;;;;;1.53;0.90;;;19.00;98.20;;;;;;5037154;28;20489;-80
2023/10/13 07:33:41;;;;;;;1.53;0.90;;;19.00;98.20;;;;;;5044448;28;20456;-80
2023/10/13 07:36:17;;;;;;;1.57;1.00;;;19.10;98.20;;;;;;5037070;28;20555;-80
2023/10/13 07:38:48;;;;;;;1.50;0.90;;;19.10;98.20;;;;;;5043184;28;20481;-80
2023/10/13 07:41:15;;;;;;;1.53;0.90;;;19.20;98.20;;;;;;5035684;28;20513;-80
2023/10/13 07:43:44;;;;;;;2.47;2.23;;;19.20;98.20;;;;;;5041162;28;20486;-80
2023/10/13 07:46:13;;;;;;;1.50;0.93;;;19.30;98.20;;;;;;5032876;28;21005;-80
2023/10/13 07:48:41;;;;;;;1.60;0.90;;;19.40;98.20;;;;;;5046915;28;20496;-80
2023/10/13 07:51:11;;;;;;;1.80;1.17;;;19.40;98.20;;;;;;5032156;28;20468;-79
2023/10/13 07:53:40;;;;;;;1.57;0.90;;;19.50;98.20;;;;;;5042712;28;20543;-80
2023/10/13 07:56:08;;;;;;;1.50;0.90;;;19.50;98.20;;;;;;5030316;28;20545;-80
2023/10/13 07:58:47;;;;;;;1.50;0.90;;;19.60;98.20;;;;;;5045746;28;20988;-79
2023/10/13 08:01:18;;;;;;;1.60;1.00;;;19.60;98.20;;;;;;5034685;28;21090;-80
2023/10/13 08:03:45;;;;;;;1.60;1.03;;;19.60;98.20;;;;;;5042343;28;21033;-80
2023/10/13 08:06:26;;;;;;;1.60;1.00;;;19.70;98.20;;;;;;5035321;28;21113;-79
2023/10/13 08:08:55;;;;;;;1.60;0.90;;;19.70;98.20;;;;;;5041345;28;20514;-79
2023/10/13 08:11:34;;;;;;;1.57;0.90;;;19.70;98.20;;;;;;5030357;28;20527;-79
2023/10/13 08:14:10;;;;;;;1.53;0.90;;;19.80;98.20;;;;;;5025674;28;20953;-79
2023/10/13 08:16:52;;;;;;;1.57;0.90;;;19.80;98.20;;;;;;5026622;28;20896;-79
2023/10/13 08:19:26;;;;;;;1.57;0.90;;;19.80;98.20;;;;;;5035805;28;21061;-79
2023/10/13 08:21:58;;;;;;;1.60;1.10;;;19.80;98.20;;;;;;5036234;28;20510;-79
2023/10/13 08:24:29;;;;;;;1.50;0.97;;;19.80;98.20;;;;;;5043836;28;20470;-79
2023/10/13 08:27:15;;;;;;;1.67;1.37;;;19.80;98.20;;;;;;5021751;28;20934;-79
2023/10/13 08:32:45;;;;;;;1.53;0.90;;;19.90;98.20;;;;;;5035489;28;20463;-81
2023/10/13 08:35:33;;;;;;;1.90;1.10;;;20.00;98.20;;;;;;5046662;28;20560;-79
2023/10/13 08:38:04;;;;;;;1.57;0.90;;;20.20;98.20;;;;;;5033362;28;20522;-78
2023/10/13 08:43:17;;;;;;;1.53;0.93;;;20.50;98.20;;;;;;5017245;28;20659;-78
2023/10/13 08:45:59;;;;;;;1.60;1.00;;;20.70;98.20;;;;;;5043115;28;20473;-79
2023/10/13 08:48:32;;;;;;;1.50;0.90;;;20.80;98.20;;;;;;5018781;28;20589;-79
2023/10/13 08:51:08;;;;;;;1.53;0.97;;;21.00;98.20;;;;;;5034046;28;20458;-79
2023/10/13 08:53:44;;;;;;;1.50;0.90;;;21.20;98.20;;;;;;5036267;28;20454;-79
2023/10/13 08:56:14;;;;;;;1.60;1.00;;;21.30;98.20;;;;;;5036332;28;20469;-79
2023/10/13 09:01:37;;;;;;;1.60;1.00;;;21.60;98.20;;;;;;5025240;28;20471;-80
2023/10/13 09:04:21;;;;;;;1.53;0.90;;;21.80;98.20;;;;;;5032412;28;21002;-79
2023/10/13 09:07:03;;;;;;;1.50;0.90;;;21.90;98.20;;;;;;5028799;28;20489;-79
2023/10/13 09:09:34;;;;;;;1.50;0.90;;;21.90;98.20;;;;;;5042966;28;20498;-79
2023/10/13 09:12:09;;;;;;;1.50;0.90;;;21.90;98.20;;;;;;5034212;28;20562;-79
2023/10/13 09:14:37;;;;;;;1.50;0.90;;;21.80;98.20;;;;;;5051001;28;20469;-78
2023/10/13 09:17:11;;;;;;;1.60;1.10;;;21.80;98.20;;;;;;5032565;28;20479;-78
2023/10/13 09:19:49;;;;;;;1.50;0.90;;;21.80;98.20;;;;;;5044178;28;20453;-79
2023/10/13 09:22:27;;;;;;;1.53;0.90;;;21.90;98.20;;;;;;5034662;28;20575;-78
2023/10/13 09:25:00;;;;;;;1.50;0.90;;;21.90;98.20;;;;;;5041480;28;20827;-78
2023/10/13 09:27:29;;;;;;;2.57;1.47;;;21.90;98.20;;;;;;5036333;28;20517;-77
2023/10/13 09:29:56;;;;;;;1.57;1.00;;;22.00;98.20;;;;;;5046355;28;20469;-77
2023/10/13 09:32:23;;;;;;;1.50;0.90;;;22.10;98.20;;;;;;5038987;28;20485;-78
2023/10/13 09:34:50;;;;;;;1.70;1.37;;;22.20;98.20;;;;;;5047814;28;20457;-78
2023/10/13 09:37:20;;;;;;;1.53;0.90;;;22.40;98.20;;;;;;5037146;28;20577;-78
2023/10/13 09:39:51;;;;;;;1.53;0.90;;;22.50;98.20;;;;;;5042888;28;20462;-77
2023/10/13 09:42:18;;;;;;;1.57;0.90;;;22.50;98.20;;;;;;5020892;28;20502;-78
2023/10/13 09:44:51;;;;;;;1.50;0.90;;;22.50;98.20;;;;;;5042971;28;20504;-79
2023/10/13 09:47:29;;;;;;;1.50;0.90;;;22.70;98.20;;;;;;5031328;28;20534;-78
2023/10/13 09:50:05;;;;;;;1.50;0.90;;;22.80;98.20;;;;;;5046138;28;20459;-78
2023/10/13 09:52:31;;;;;;;1.53;0.90;;;22.90;98.20;;;;;;5032169;28;20474;-79
2023/10/13 09:55:18;;;;;;;1.50;0.90;;;23.00;98.20;;;;;;5048737;28;20993;-78
2023/10/13 09:57:48;;;;;;;1.57;0.90;;;23.10;98.20;;;;;;5030268;28;20481;-79
2023/10/13 10:00:44;;;;;;;1.50;0.90;;;23.20;98.20;;;;;;5046840;28;20474;-78
2023/10/13 10:03:30;;;;;;;2.27;1.17;;;23.30;98.20;;;;;;5033836;28;20470;-78
2023/10/13 10:06:06;;;;;;;1.60;1.10;;;23.50;98.20;;;;;;5041993;28;20552;-78
2023/10/13 10:08:33;;;;;;;1.50;0.90;;;23.50;98.20;;;;;;5055943;28;20915;-77
2023/10/13 10:11:34;;;;;;;1.50;0.90;;;23.50;98.20;;;;;;5034644;28;20956;-78
2023/10/13 10:14:09;;;;;;;1.50;0.90;;;23.60;98.20;;;;;;5052872;28;20454;-79
2023/10/13 10:16:46;;;;;;;1.50;0.87;;;23.60;98.20;;;;;;5034893;28;20482;-78
2023/10/13 10:19:13;;;;;;;1.53;0.90;;;23.70;98.20;;;;;;5046178;28;20776;-79
2023/10/13 10:21:43;;;;;;;1.60;1.03;;;23.70;98.20;;;;;;5042783;28;20477;-78
2023/10/13 10:24:29;;;;;;;1.53;0.90;;;23.80;98.20;;;;;;5049552;28;20510;-79
2023/10/13 10:26:56;;;;;;;1.50;0.90;;;23.90;98.20;;;;;;5030553;28;20502;-78
2023/10/13 10:29:23;;;;;;;1.50;0.90;;;24.00;98.20;;;;;;5045218;28;20825;-79
2023/10/13 10:31:51;;;;;;;1.50;0.90;;;24.10;98.20;;;;;;5041540;28;20485;-78
2023/10/13 10:34:19;;;;;;;1.90;1.47;;;24.20;98.20;;;;;;5048689;28;20455;-77
2023/10/13 10:36:54;;;;;;;1.60;1.00;;;24.20;98.20;;;;;;5033819;28;20560;-78
2023/10/13 10:39:33;;;;;;;1.50;1.00;;;24.30;98.20;;;;;;5046048;28;20842;-79
2023/10/13 10:42:15;;;;;;;1.50;0.90;;;24.40;98.20;;;;;;5040851;28;20567;-78
2023/10/13 10:44:43;;;;;;;1.53;0.87;;;24.50;98.20;;;;;;5049137;28;20460;-78
2023/10/13 10:47:11;;;;;;;1.50;0.90;;;24.70;98.20;;;;;;5038068;28;20982;-77
2023/10/13 10:49:40;;;;;;;1.50;0.90;;;25.00;98.20;;;;;;5049380;28;20468;-78
2023/10/13 10:52:18;;;;;;;1.60;1.10;;;25.20;98.20;;;;;;5029121;28;20483;-78
2023/10/13 10:54:48;;;;;;;1.50;0.90;;;25.40;98.20;;;;;;5049113;28;20485;-79
2023/10/13 10:57:18;;;;;;;1.50;0.90;;;25.60;98.20;;;;;;5034167;28;20529;-78
2023/10/13 10:59:45;;;;;;;1.53;0.90;;;25.90;98.20;;;;;;5047992;28;20464;-77
2023/10/13 11:02:15;;;;;;;1.50;0.90;;;26.10;98.20;;;;;;5035001;28;21072;-77
2023/10/13 11:04:50;;;;;;;1.50;0.90;;;26.30;98.10;;;;;;5049078;28;20462;-78
2023/10/13 11:07:23;;;;;;;1.50;0.90;;;26.50;98.10;;;;;;5024738;28;20945;-77
2023/10/13 11:09:52;;;;;;;1.50;0.90;;;26.70;97.20;;;;;;5047234;28;20782;-78
2023/10/13 11:12:25;;;;;;;1.90;1.60;;;26.80;96.50;;;;;;5038160;28;20883;-78
2023/10/13 11:15:05;;;;;;;1.50;0.80;;;26.80;96.70;;;;;;5045329;28;20469;-78
2023/10/13 11:17:50;;;;;;;1.50;0.80;;;26.80;95.00;;;;;;5034170;28;20474;-78
2023/10/13 11:20:25;;;;;;;1.50;0.90;;;26.90;95.80;;;;;;5045353;28;20587;-78
2023/10/13 11:22:53;;;;;;;1.60;1.20;;;26.90;95.10;;;;;;5033416;28;20481;-78
2023/10/13 11:25:26;;;;;;;1.50;0.80;;;26.90;95.00;;;;;;5049101;28;20462;-78
2023/10/13 11:27:59;;;;;;;1.50;0.80;;;26.80;93.80;;;;;;5023241;28;20522;-78
2023/10/13 11:30:40;;;;;;;1.50;0.87;;;26.80;94.10;;;;;;5052235;28;20463;-78
2023/10/13 11:33:08;;;;;;;1.50;0.90;;;26.70;92.80;;;;;;5024406;28;20469;-77
2023/10/13 11:38:26;;;;;;;1.50;0.80;;;26.60;94.60;;;;;;5025395;28;20652;-77
2023/10/13 11:41:08;;;;;;;1.43;0.83;;;26.50;94.50;;;;;;5039337;28;20469;-77
2023/10/13 11:43:52;;;;;;;1.43;0.80;;;26.40;94.10;;;;;;5033196;28;20493;-78
2023/10/13 11:49:13;;;;;;;1.60;1.20;;;26.50;95.50;;;;;;5044722;28;21052;-78
2023/10/13 11:51:44;;;;;;;1.50;0.80;;;26.50;96.20;;;;;;5041876;28;20515;-79
2023/10/13 11:54:13;;;;;;;1.50;0.90;;;26.50;95.30;;;;;;5044725;28;20551;-78
2023/10/13 11:56:40;;;;;;;1.50;0.90;;;26.50;94.80;;;;;;5029611;28;20482;-77
2023/10/13 11:59:15;;;;;;;1.50;0.90;;;26.40;95.00;;;;;;5039916;28;20489;-80
2023/10/13 12:04:34;;;;;;;1.50;0.90;;;26.30;94.70;;;;;;5052998;28;20556;-78
2023/10/13 12:07:14;;;;;;;1.50;0.80;;;26.10;92.80;;;;;;5035302;28;21067;-78
2023/10/13 12:09:52;;;;;;;1.50;0.90;;;26.00;93.90;;;;;;5054798;28;20464;-78
2023/10/13 12:12:19;;;;;;;1.50;0.87;;;25.90;94.30;;;;;;5025722;28;21076;-78
2023/10/13 12:14:54;;;;;;;1.50;0.90;;;25.80;93.90;;;;;;5048034;28;20466;-78
2023/10/13 12:17:25;;;;;;;1.50;0.90;;;25.70;94.50;;;;;;5020484;28;20739;-77
2023/10/13 12:19:52;;;;;;;1.50;0.90;;;25.60;94.40;;;;;;5046241;28;20466;-77
2023/10/13 12:22:26;;;;;;;1.50;0.80;;;25.50;94.30;;;;;;5019078;28;20499;-77
2023/10/13 12:24:55;;;;;;;1.50;0.90;;;25.50;95.10;;;;;;5042013;28;20486;-77
2023/10/13 12:27:26;;;;;;;1.60;1.10;;;25.40;95.30;;;;;;5026439;28;20578;-77
2023/10/13 12:29:56;;;;;;;1.50;1.33;;;25.30;96.10;;;;;;5047607;28;20538;-77
2023/10/13 12:32:25;;;;;;;1.40;0.80;;;25.30;96.00;;;;;;5029477;28;20508;-77
2023/10/13 12:35:00;;;;;;;1.50;0.90;;;25.20;96.60;;;;;;5052237;28;20456;-77
2023/10/13 12:37:49;;;;;;;1.47;0.90;;;25.20;96.70;;;;;;5040133;28;20489;-78
2023/10/13 12:49:28;;;;;;;1.50;0.90;;;25.00;96.20;;;;;;5051290;28;20469;-78
2023/10/13 12:51:51;;;;;;;1.50;0.90;;;25.00;95.60;;;;;;5037883;28;21023;-78
2023/10/13 12:54:23;;;;;;;1.50;1.10;;;25.00;95.40;;;;;;5048219;28;20507;-77
2023/10/13 12:56:56;;;;;;;1.50;0.90;;;25.10;95.10;;;;;;5038372;28;20549;-78
2023/10/13 12:59:26;;;;;;;1.50;0.90;;;25.10;95.10;;;;;;5052282;28;20462;-79
2023/10/13 13:01:53;;;;;;;29.63;2.93;;;25.20;94.20;;;;;;5034846;28;20484;-77
2023/10/13 13:04:21;;;;;;;1.43;0.90;;;25.20;94.20;;;;;;5045384;28;20485;-78
2023/10/13 13:06:48;;;;;;;1.50;0.90;;;25.20;94.10;;;;;;5038202;28;20485;-77
2023/10/13 13:09:15;;;;;;;1.43;0.90;;;25.20;92.90;;;;;;5046742;28;21034;-78
2023/10/13 13:11:42;;;;;;;1.50;0.90;;;25.20;93.80;;;;;;5028294;28;20472;-78
2023/10/13 13:14:10;;;;;;;1.40;0.90;;;25.20;93.50;;;;;;5038074;28;20568;-78
2023/10/13 13:16:38;;;;;;;1.40;0.90;;;25.20;93.80;;;;;;5038673;28;20513;-78
2023/10/13 13:19:10;;;;;;;2.13;1.93;;;25.20;93.80;;;;;;5045269;28;20968;-79
2023/10/13 13:21:38;;;;;;;1.50;0.90;;;25.30;93.70;;;;;;5041416;28;20490;-79
2023/10/13 13:24:05;;;;;;;1.50;0.90;;;25.30;92.90;;;;;;5048941;28;21032;-79
2023/10/13 13:26:32;;;;;;;1.50;0.90;;;25.30;91.70;;;;;;5036429;28;20494;-78
2023/10/13 13:28:59;;;;;;;1.40;0.90;;;25.30;92.40;;;;;;5038047;28;20489;-78
2023/10/13 13:31:29;;;;;;;1.47;0.90;;;25.20;92.30;;;;;;5036322;28;20475;-78
2023/10/13 13:33:56;;;;;;;1.63;1.00;;;25.10;91.90;;;;;;5047075;28;20553;-79
2023/10/13 13:36:23;;;;;;;1.50;0.90;;;25.00;92.40;;;;;;5036476;28;20476;-77
2023/10/13 13:38:51;;;;;;;1.40;0.80;;;24.90;92.80;;;;;;5040105;28;20500;-77
2023/10/13 13:41:18;;;;;;;1.50;0.90;;;24.80;92.80;;;;;;5041505;28;20476;-78
2023/10/13 13:43:56;;;;;;;1.70;1.40;;;24.70;93.10;;;;;;5049419;28;20485;-77
2023/10/13 13:46:27;;;;;;;1.50;0.90;;;24.60;92.20;;;;;;5042063;28;20474;-78
2023/10/13 13:48:59;;;;;;;1.50;0.90;;;24.50;92.20;;;;;;5048107;28;20997;-79
2023/10/13 13:51:27;;;;;;;1.50;0.90;;;24.50;93.30;;;;;;5043773;28;20531;-79
2023/10/13 13:54:06;;;;;;;1.50;0.80;;;24.40;92.50;;;;;;5053938;28;20450;-79
2023/10/13 13:56:38;;;;;;;1.90;1.23;;;24.40;93.20;;;;;;5032555;28;20588;-79
2023/10/13 13:59:08;;;;;;;1.50;0.90;;;24.40;93.80;;;;;;5041772;28;20540;-79
2023/10/13 14:01:37;;;;;;;1.47;0.90;;;24.30;93.80;;;;;;5042133;28;20506;-79
2023/10/13 14:04:06;;;;;;;1.47;0.80;;;24.30;93.00;;;;;;5048686;28;20506;-80
2023/10/13 14:06:34;;;;;;;1.50;0.90;;;24.30;93.30;;;;;;5038497;28;20554;-78
2023/10/13 14:09:03;;;;;;;1.50;0.90;;;24.30;93.10;;;;;;5044841;28;20484;-79
2023/10/13 14:14:30;;;;;;;1.47;0.83;;;24.30;92.90;;;;;;5048825;28;20484;-79
2023/10/13 14:17:03;;;;;;;1.50;0.90;;;24.30;93.50;;;;;;5036148;28;20473;-77
2023/10/13 14:19:31;;;;;;;1.47;0.90;;;24.20;93.40;;;;;;5050719;28;20459;-78
2023/10/13 14:22:06;;;;;;;1.50;0.90;;;24.20;92.90;;;;;;5038639;28;20484;-78
2023/10/13 14:24:35;;;;;;;1.70;1.57;;;24.20;93.90;;;;;;5053532;28;21185;-78
2023/10/13 14:27:08;;;;;;;1.47;0.80;;;24.10;94.00;;;;;;5042539;28;20491;-77
2023/10/13 14:29:39;;;;;;;1.47;0.90;;;24.10;94.20;;;;;;5048078;28;20697;-77
2023/10/13 14:32:11;;;;;;;1.50;0.90;;;24.10;93.70;;;;;;5034129;28;20945;-77
2023/10/13 14:34:40;;;;;;;1.43;0.90;;;24.00;93.80;;;;;;5046728;28;20453;-77
2023/10/13 14:37:08;;;;;;;1.50;0.90;;;23.90;94.00;;;;;;5036653;28;21441;-78
2023/10/13 14:39:36;;;;;;;1.50;0.90;;;23.90;93.80;;;;;;5045488;28;20712;-78
2023/10/13 14:42:05;;;;;;;1.50;0.80;;;23.90;94.00;;;;;;5034882;28;20853;-78
2023/10/13 14:44:33;;;;;;;1.50;0.90;;;23.80;94.70;;;;;;5048245;28;20535;-78
2023/10/13 14:47:00;;;;;;;1.50;0.90;;;23.80;94.80;;;;;;5031140;28;20545;-78
2023/10/13 14:49:27;;;;;;;2.80;2.60;;;23.80;95.10;;;;;;5043677;28;20455;-78
2023/10/13 14:51:56;;;;;;;1.47;0.90;;;23.70;94.80;;;;;;5033111;28;20544;-78
2023/10/13 14:54:32;;;;;;;1.47;0.90;;;23.70;94.80;;;;;;5044748;28;20455;-77
2023/10/13 14:57:00;;;;;;;1.50;0.90;;;23.70;95.20;;;;;;5036619;28;20474;-78
2023/10/13 14:59:32;;;;;;;2.83;1.30;;;23.60;94.90;;;;;;5051780;28;20462;-78
2023/10/13 15:02:02;;;;;;;1.47;0.90;;;23.60;95.10;;;;;;5032895;28;20482;-78
2023/10/13 15:04:32;;;;;;;1.50;0.90;;;23.60;95.00;;;;;;5046797;28;20851;-78
2023/10/13 15:07:02;;;;;;;1.50;0.90;;;23.50;94.70;;;;;;5034844;28;20756;-77
2023/10/13 15:09:30;;;;;;;1.50;0.90;;;23.50;94.90;;;;;;5047105;28;20878;-79